sensor_id;sensor_type;location;lat;lon;timestamp;temperature;humidity
6865;DHT22;3471;49.678;8.388;2023-06-22T00:01:54;25.30;99.90
6865;DHT22;3471;49.678;8.388;2023-06-22T00:04:20;25.30;99.90
6865;DHT22;3471;49.678;8.388;2023-06-22T00:06:46;25.30;99.90
6865;DHT22;3471;49.678;8.388;2023-06-22T00:09:11;25.20;99.90
6865;DHT22;3471;49.678;8.388;2023-06-22T00:11:37;25.20;99.90
6865;DHT22;3471;49.678;8.388;2023-06-22T00:14:03;25.20;99.90
6865;DHT22;3471;49.678;8.388;2023-06-22T00:16:31;25.10;99.90
6865;DHT22;3471;49.678;8.388;2023-06-22T00:18:56;25.10;99.90
6865;DHT22;3471;49.678;8.388;2023-06-22T00:21:23;24.90;99.90
6865;DHT22;3471;49.678;8.388;2023-06-22T00:23:49;24.90;99.90
6865;DHT22;3471;49.678;8.388;2023-06-22T00:26:14;24.90;99.90
6865;DHT22;3471;49.678;8.388;2023-06-22T00:28:40;24.70;99.90
6865;DHT22;3471;49.678;8.388;2023-06-22T00:31:05;24.60;99.90
6865;DHT22;3471;49.678;8.388;2023-06-22T00:33:31;24.50;99.90
6865;DHT22;3471;49.678;8.388;2023-06-22T00:35:57;24.40;99.90
6865;DHT22;3471;49.678;8.388;2023-06-22T00:38:22;24.40;99.90
6865;DHT22;3471;49.678;8.388;2023-06-22T00:40:48;24.40;99.90
6865;DHT22;3471;49.678;8.388;2023-06-22T00:43:13;24.50;99.90
6865;DHT22;3471;49.678;8.388;2023-06-22T00:45:39;24.50;99.90
6865;DHT22;3471;49.678;8.388;2023-06-22T00:48:06;24.50;99.90
6865;DHT22;3471;49.678;8.388;2023-06-22T00:50:33;24.40;99.90
6865;DHT22;3471;49.678;8.388;2023-06-22T00:53:03;24.40;99.90
6865;DHT22;3471;49.678;8.388;2023-06-22T00:55:30;24.30;99.90
6865;DHT22;3471;49.678;8.388;2023-06-22T00:57:56;24.20;99.90
6865;DHT22;3471;49.678;8.388;2023-06-22T01:00:23;24.10;99.90
6865;DHT22;3471;49.678;8.388;2023-06-22T01:02:51;24.00;99.90
6865;DHT22;3471;49.678;8.388;2023-06-22T01:05:19;24.00;99.90
6865;DHT22;3471;49.678;8.388;2023-06-22T01:13:10;24.10;99.90
6865;DHT22;3471;49.678;8.388;2023-06-22T01:15:44;24.10;99.90
6865;DHT22;3471;49.678;8.388;2023-06-22T01:18:12;24.10;99.90
6865;DHT22;3471;49.678;8.388;2023-06-22T01:20:39;24.10;99.90
6865;DHT22;3471;49.678;8.388;2023-06-22T01:26:14;24.20;99.90
6865;DHT22;3471;49.678;8.388;2023-06-22T01:28:49;24.20;99.90
6865;DHT22;3471;49.678;8.388;2023-06-22T01:31:18;24.10;99.90
6865;DHT22;3471;49.678;8.388;2023-06-22T01:33:48;24.00;99.90
6865;DHT22;3471;49.678;8.388;2023-06-22T01:36:16;23.90;99.90
6865;DHT22;3471;49.678;8.388;2023-06-22T01:38:43;23.90;99.90
6865;DHT22;3471;49.678;8.388;2023-06-22T01:41:10;23.80;99.90
6865;DHT22;3471;49.678;8.388;2023-06-22T01:43:36;23.70;99.90
6865;DHT22;3471;49.678;8.388;2023-06-22T01:46:03;23.70;99.90
6865;DHT22;3471;49.678;8.388;2023-06-22T01:48:29;23.70;99.90
6865;DHT22;3471;49.678;8.388;2023-06-22T01:50:55;23.70;99.90
6865;DHT22;3471;49.678;8.388;2023-06-22T01:53:21;23.70;99.90
6865;DHT22;3471;49.678;8.388;2023-06-22T01:55:47;23.70;99.90
6865;DHT22;3471;49.678;8.388;2023-06-22T01:58:13;23.70;99.90
6865;DHT22;3471;49.678;8.388;2023-06-22T02:00:41;23.70;99.90
6865;DHT22;3471;49.678;8.388;2023-06-22T02:03:13;23.70;99.90
6865;DHT22;3471;49.678;8.388;2023-06-22T02:05:48;23.70;99.90
6865;DHT22;3471;49.678;8.388;2023-06-22T02:08:24;23.70;99.90
6865;DHT22;3471;49.678;8.388;2023-06-22T02:10:51;23.70;99.90
6865;DHT22;3471;49.678;8.388;2023-06-22T02:13:18;23.70;99.90
6865;DHT22;3471;49.678;8.388;2023-06-22T02:15:44;23.60;99.90
6865;DHT22;3471;49.678;8.388;2023-06-22T02:18:10;23.60;99.90
6865;DHT22;3471;49.678;8.388;2023-06-22T02:20:37;23.60;99.90
6865;DHT22;3471;49.678;8.388;2023-06-22T02:23:02;23.60;99.90
6865;DHT22;3471;49.678;8.388;2023-06-22T02:25:28;23.50;99.90
6865;DHT22;3471;49.678;8.388;2023-06-22T02:27:54;23.50;99.90
6865;DHT22;3471;49.678;8.388;2023-06-22T02:30:19;23.50;99.90
6865;DHT22;3471;49.678;8.388;2023-06-22T02:32:45;23.50;99.90
6865;DHT22;3471;49.678;8.388;2023-06-22T02:35:10;23.50;99.90
6865;DHT22;3471;49.678;8.388;2023-06-22T02:37:37;23.50;99.90
6865;DHT22;3471;49.678;8.388;2023-06-22T02:40:07;23.50;99.90
6865;DHT22;3471;49.678;8.388;2023-06-22T02:42:35;23.50;99.90
6865;DHT22;3471;49.678;8.388;2023-06-22T02:45:01;23.40;99.90
6865;DHT22;3471;49.678;8.388;2023-06-22T02:47:26;23.40;99.90
6865;DHT22;3471;49.678;8.388;2023-06-22T02:49:52;23.40;99.90
6865;DHT22;3471;49.678;8.388;2023-06-22T02:52:18;23.40;99.90
6865;DHT22;3471;49.678;8.388;2023-06-22T02:54:43;23.40;99.90
6865;DHT22;3471;49.678;8.388;2023-06-22T02:57:11;23.30;99.90
6865;DHT22;3471;49.678;8.388;2023-06-22T02:59:40;23.30;99.90
6865;DHT22;3471;49.678;8.388;2023-06-22T03:02:07;23.20;99.90
6865;DHT22;3471;49.678;8.388;2023-06-22T03:04:33;23.20;99.90
6865;DHT22;3471;49.678;8.388;2023-06-22T03:06:59;23.20;99.90
6865;DHT22;3471;49.678;8.388;2023-06-22T03:09:29;23.20;99.90
6865;DHT22;3471;49.678;8.388;2023-06-22T03:11:55;23.10;99.90
6865;DHT22;3471;49.678;8.388;2023-06-22T03:14:20;23.10;99.90
6865;DHT22;3471;49.678;8.388;2023-06-22T03:16:46;23.00;99.90
6865;DHT22;3471;49.678;8.388;2023-06-22T03:19:12;23.00;99.90
6865;DHT22;3471;49.678;8.388;2023-06-22T03:21:38;22.90;99.90
6865;DHT22;3471;49.678;8.388;2023-06-22T03:24:04;22.90;99.90
6865;DHT22;3471;49.678;8.388;2023-06-22T03:26:30;22.90;99.90
6865;DHT22;3471;49.678;8.388;2023-06-22T03:28:56;22.80;99.90
6865;DHT22;3471;49.678;8.388;2023-06-22T03:31:22;22.90;99.90
6865;DHT22;3471;49.678;8.388;2023-06-22T03:33:48;22.80;99.90
6865;DHT22;3471;49.678;8.388;2023-06-22T03:36:15;22.80;99.90
6865;DHT22;3471;49.678;8.388;2023-06-22T03:38:45;22.80;99.90
6865;DHT22;3471;49.678;8.388;2023-06-22T03:41:11;22.80;99.90
6865;DHT22;3471;49.678;8.388;2023-06-22T03:43:37;22.80;99.90
6865;DHT22;3471;49.678;8.388;2023-06-22T03:46:02;22.80;99.90
6865;DHT22;3471;49.678;8.388;2023-06-22T03:48:28;22.80;99.90
6865;DHT22;3471;49.678;8.388;2023-06-22T03:50:54;22.80;99.90
6865;DHT22;3471;49.678;8.388;2023-06-22T03:53:19;22.80;99.90
6865;DHT22;3471;49.678;8.388;2023-06-22T03:55:50;22.80;99.90
6865;DHT22;3471;49.678;8.388;2023-06-22T03:58:16;22.90;99.90
6865;DHT22;3471;49.678;8.388;2023-06-22T04:00:41;22.90;99.90
6865;DHT22;3471;49.678;8.388;2023-06-22T04:03:07;22.90;99.90
6865;DHT22;3471;49.678;8.388;2023-06-22T04:05:33;22.90;99.90
6865;DHT22;3471;49.678;8.388;2023-06-22T04:07:58;22.90;99.90
6865;DHT22;3471;49.678;8.388;2023-06-22T04:10:24;22.90;99.90
6865;DHT22;3471;49.678;8.388;2023-06-22T04:12:49;22.90;99.90
6865;DHT22;3471;49.678;8.388;2023-06-22T04:15:15;22.90;99.90
6865;DHT22;3471;49.678;8.388;2023-06-22T04:17:41;22.90;99.90
6865;DHT22;3471;49.678;8.388;2023-06-22T04:20:08;22.90;99.90
6865;DHT22;3471;49.678;8.388;2023-06-22T04:22:34;23.00;99.90
6865;DHT22;3471;49.678;8.388;2023-06-22T04:24:59;23.00;99.90
6865;DHT22;3471;49.678;8.388;2023-06-22T04:27:25;23.00;99.90
6865;DHT22;3471;49.678;8.388;2023-06-22T04:29:50;23.00;99.90
6865;DHT22;3471;49.678;8.388;2023-06-22T04:32:16;23.00;99.90
6865;DHT22;3471;49.678;8.388;2023-06-22T04:34:42;23.00;99.90
6865;DHT22;3471;49.678;8.388;2023-06-22T04:37:09;23.10;99.90
6865;DHT22;3471;49.678;8.388;2023-06-22T04:39:34;23.10;99.90
6865;DHT22;3471;49.678;8.388;2023-06-22T04:42:00;23.10;99.90
6865;DHT22;3471;49.678;8.388;2023-06-22T04:44:26;23.10;99.90
6865;DHT22;3471;49.678;8.388;2023-06-22T04:46:52;23.10;99.90
6865;DHT22;3471;49.678;8.388;2023-06-22T04:49:20;23.10;99.90
6865;DHT22;3471;49.678;8.388;2023-06-22T04:51:46;23.20;99.90
6865;DHT22;3471;49.678;8.388;2023-06-22T04:54:12;23.20;99.90
6865;DHT22;3471;49.678;8.388;2023-06-22T04:56:37;23.20;99.90
6865;DHT22;3471;49.678;8.388;2023-06-22T04:59:06;23.30;99.90
6865;DHT22;3471;49.678;8.388;2023-06-22T05:01:32;23.40;99.90
6865;DHT22;3471;49.678;8.388;2023-06-22T05:03:58;23.40;99.90
6865;DHT22;3471;49.678;8.388;2023-06-22T05:06:26;23.50;99.90
6865;DHT22;3471;49.678;8.388;2023-06-22T05:08:54;23.60;99.90
6865;DHT22;3471;49.678;8.388;2023-06-22T05:11:26;23.70;99.90
6865;DHT22;3471;49.678;8.388;2023-06-22T05:13:52;23.80;99.90
6865;DHT22;3471;49.678;8.388;2023-06-22T05:16:18;23.90;99.90
6865;DHT22;3471;49.678;8.388;2023-06-22T05:18:53;23.90;99.90
6865;DHT22;3471;49.678;8.388;2023-06-22T05:21:22;24.00;99.90
6865;DHT22;3471;49.678;8.388;2023-06-22T05:23:48;24.10;99.90
6865;DHT22;3471;49.678;8.388;2023-06-22T05:26:14;24.20;99.90
6865;DHT22;3471;49.678;8.388;2023-06-22T05:28:40;24.20;99.90
6865;DHT22;3471;49.678;8.388;2023-06-22T05:31:05;24.30;99.90
6865;DHT22;3471;49.678;8.388;2023-06-22T05:33:31;24.40;99.90
6865;DHT22;3471;49.678;8.388;2023-06-22T05:35:56;24.50;99.90
6865;DHT22;3471;49.678;8.388;2023-06-22T05:38:22;24.60;99.90
6865;DHT22;3471;49.678;8.388;2023-06-22T05:40:48;24.70;99.90
6865;DHT22;3471;49.678;8.388;2023-06-22T05:43:13;24.80;99.90
6865;DHT22;3471;49.678;8.388;2023-06-22T05:45:39;24.90;99.90
6865;DHT22;3471;49.678;8.388;2023-06-22T05:48:05;25.00;99.90
6865;DHT22;3471;49.678;8.388;2023-06-22T05:50:30;25.10;99.90
6865;DHT22;3471;49.678;8.388;2023-06-22T05:52:56;25.10;99.90
6865;DHT22;3471;49.678;8.388;2023-06-22T05:55:21;25.20;99.90
6865;DHT22;3471;49.678;8.388;2023-06-22T05:57:47;25.30;99.90
6865;DHT22;3471;49.678;8.388;2023-06-22T06:00:13;25.40;99.90
6865;DHT22;3471;49.678;8.388;2023-06-22T06:02:40;25.50;99.90
6865;DHT22;3471;49.678;8.388;2023-06-22T06:05:12;25.60;99.90
6865;DHT22;3471;49.678;8.388;2023-06-22T06:07:39;25.80;99.90
6865;DHT22;3471;49.678;8.388;2023-06-22T06:10:05;25.80;99.90
6865;DHT22;3471;49.678;8.388;2023-06-22T06:12:32;25.90;99.90
6865;DHT22;3471;49.678;8.388;2023-06-22T06:14:57;26.00;99.90
6865;DHT22;3471;49.678;8.388;2023-06-22T06:17:23;26.00;99.90
6865;DHT22;3471;49.678;8.388;2023-06-22T06:19:49;26.20;99.90
6865;DHT22;3471;49.678;8.388;2023-06-22T06:22:14;26.20;99.90
6865;DHT22;3471;49.678;8.388;2023-06-22T06:24:40;26.30;99.90
6865;DHT22;3471;49.678;8.388;2023-06-22T06:27:05;26.50;99.90
6865;DHT22;3471;49.678;8.388;2023-06-22T06:29:32;26.60;99.90
6865;DHT22;3471;49.678;8.388;2023-06-22T06:31:57;26.70;99.90
6865;DHT22;3471;49.678;8.388;2023-06-22T06:34:23;26.80;99.90
6865;DHT22;3471;49.678;8.388;2023-06-22T06:36:48;26.80;99.90
6865;DHT22;3471;49.678;8.388;2023-06-22T06:39:14;26.90;99.90
6865;DHT22;3471;49.678;8.388;2023-06-22T06:41:41;26.90;99.90
6865;DHT22;3471;49.678;8.388;2023-06-22T06:44:06;27.00;99.90
6865;DHT22;3471;49.678;8.388;2023-06-22T06:46:32;27.10;99.90
6865;DHT22;3471;49.678;8.388;2023-06-22T06:48:58;27.20;99.90
6865;DHT22;3471;49.678;8.388;2023-06-22T06:51:23;27.30;99.90
6865;DHT22;3471;49.678;8.388;2023-06-22T06:53:49;27.40;99.90
6865;DHT22;3471;49.678;8.388;2023-06-22T06:56:15;27.50;99.90
6865;DHT22;3471;49.678;8.388;2023-06-22T06:58:41;27.50;99.90
6865;DHT22;3471;49.678;8.388;2023-06-22T07:01:11;27.40;99.90
6865;DHT22;3471;49.678;8.388;2023-06-22T07:03:37;27.50;99.90
6865;DHT22;3471;49.678;8.388;2023-06-22T07:06:03;27.50;99.90
6865;DHT22;3471;49.678;8.388;2023-06-22T07:08:29;27.60;99.90
6865;DHT22;3471;49.678;8.388;2023-06-22T07:10:55;27.70;99.90
6865;DHT22;3471;49.678;8.388;2023-06-22T07:13:20;27.70;99.90
6865;DHT22;3471;49.678;8.388;2023-06-22T07:15:46;27.70;99.90
6865;DHT22;3471;49.678;8.388;2023-06-22T07:18:12;27.70;99.90
6865;DHT22;3471;49.678;8.388;2023-06-22T07:20:37;27.70;99.90
6865;DHT22;3471;49.678;8.388;2023-06-22T07:23:04;27.70;99.90
6865;DHT22;3471;49.678;8.388;2023-06-22T07:25:30;27.70;99.90
6865;DHT22;3471;49.678;8.388;2023-06-22T07:28:03;27.70;99.90
6865;DHT22;3471;49.678;8.388;2023-06-22T07:30:30;27.80;99.90
6865;DHT22;3471;49.678;8.388;2023-06-22T07:32:57;28.00;99.90
6865;DHT22;3471;49.678;8.388;2023-06-22T07:35:24;28.10;99.90
6865;DHT22;3471;49.678;8.388;2023-06-22T07:37:49;28.10;99.90
6865;DHT22;3471;49.678;8.388;2023-06-22T07:40:15;28.20;99.90
6865;DHT22;3471;49.678;8.388;2023-06-22T07:42:41;28.30;99.90
6865;DHT22;3471;49.678;8.388;2023-06-22T07:45:07;28.20;99.90
6865;DHT22;3471;49.678;8.388;2023-06-22T07:47:35;28.30;99.90
6865;DHT22;3471;49.678;8.388;2023-06-22T07:50:02;28.30;99.90
6865;DHT22;3471;49.678;8.388;2023-06-22T07:52:30;28.40;99.90
6865;DHT22;3471;49.678;8.388;2023-06-22T07:54:56;28.40;99.90
6865;DHT22;3471;49.678;8.388;2023-06-22T07:57:21;28.50;99.90
6865;DHT22;3471;49.678;8.388;2023-06-22T07:59:47;28.50;99.90
6865;DHT22;3471;49.678;8.388;2023-06-22T08:02:12;28.60;99.90
6865;DHT22;3471;49.678;8.388;2023-06-22T08:04:39;28.70;99.90
6865;DHT22;3471;49.678;8.388;2023-06-22T08:07:05;28.80;99.90
6865;DHT22;3471;49.678;8.388;2023-06-22T08:09:31;28.90;99.90
6865;DHT22;3471;49.678;8.388;2023-06-22T08:11:57;28.90;99.90
6865;DHT22;3471;49.678;8.388;2023-06-22T08:14:27;29.00;99.90
6865;DHT22;3471;49.678;8.388;2023-06-22T08:16:53;29.10;99.90
6865;DHT22;3471;49.678;8.388;2023-06-22T08:19:18;29.20;99.90
6865;DHT22;3471;49.678;8.388;2023-06-22T08:21:44;29.40;99.90
6865;DHT22;3471;49.678;8.388;2023-06-22T08:24:09;29.60;99.90
6865;DHT22;3471;49.678;8.388;2023-06-22T08:26:35;29.80;99.90
6865;DHT22;3471;49.678;8.388;2023-06-22T08:29:03;29.90;99.90
6865;DHT22;3471;49.678;8.388;2023-06-22T08:31:29;30.10;99.90
6865;DHT22;3471;49.678;8.388;2023-06-22T08:33:55;30.30;99.90
6865;DHT22;3471;49.678;8.388;2023-06-22T08:36:21;30.40;99.90
6865;DHT22;3471;49.678;8.388;2023-06-22T08:38:46;30.50;99.90
6865;DHT22;3471;49.678;8.388;2023-06-22T08:41:17;30.60;99.90
6865;DHT22;3471;49.678;8.388;2023-06-22T08:43:43;30.70;99.90
6865;DHT22;3471;49.678;8.388;2023-06-22T08:46:10;30.80;99.90
6865;DHT22;3471;49.678;8.388;2023-06-22T08:48:36;30.90;99.90
6865;DHT22;3471;49.678;8.388;2023-06-22T08:51:01;31.00;99.90
6865;DHT22;3471;49.678;8.388;2023-06-22T08:53:28;31.00;99.90
6865;DHT22;3471;49.678;8.388;2023-06-22T08:55:53;30.90;99.90
6865;DHT22;3471;49.678;8.388;2023-06-22T08:58:19;30.90;99.90
6865;DHT22;3471;49.678;8.388;2023-06-22T09:00:46;30.90;99.90
6865;DHT22;3471;49.678;8.388;2023-06-22T09:03:12;30.90;99.90
6865;DHT22;3471;49.678;8.388;2023-06-22T09:05:38;30.90;99.90
6865;DHT22;3471;49.678;8.388;2023-06-22T09:08:03;31.00;99.90
6865;DHT22;3471;49.678;8.388;2023-06-22T09:10:29;31.10;99.90
6865;DHT22;3471;49.678;8.388;2023-06-22T09:12:55;31.30;99.90
6865;DHT22;3471;49.678;8.388;2023-06-22T09:15:20;31.40;99.90
6865;DHT22;3471;49.678;8.388;2023-06-22T09:17:46;31.50;99.90
6865;DHT22;3471;49.678;8.388;2023-06-22T09:20:12;31.60;99.90
6865;DHT22;3471;49.678;8.388;2023-06-22T09:22:38;31.60;99.90
6865;DHT22;3471;49.678;8.388;2023-06-22T09:25:04;31.70;99.90
6865;DHT22;3471;49.678;8.388;2023-06-22T09:27:30;31.80;99.90
6865;DHT22;3471;49.678;8.388;2023-06-22T09:29:56;31.80;99.90
6865;DHT22;3471;49.678;8.388;2023-06-22T09:32:24;31.80;99.90
6865;DHT22;3471;49.678;8.388;2023-06-22T09:34:49;31.80;99.90
6865;DHT22;3471;49.678;8.388;2023-06-22T09:37:15;31.80;99.90
6865;DHT22;3471;49.678;8.388;2023-06-22T09:39:40;31.80;99.90
6865;DHT22;3471;49.678;8.388;2023-06-22T09:42:06;31.80;99.90
6865;DHT22;3471;49.678;8.388;2023-06-22T09:44:32;32.00;99.90
6865;DHT22;3471;49.678;8.388;2023-06-22T09:46:57;32.10;99.90
6865;DHT22;3471;49.678;8.388;2023-06-22T09:49:23;32.20;99.90
6865;DHT22;3471;49.678;8.388;2023-06-22T09:51:48;32.20;99.90
6865;DHT22;3471;49.678;8.388;2023-06-22T09:54:16;32.20;99.90
6865;DHT22;3471;49.678;8.388;2023-06-22T09:56:42;32.20;99.90
6865;DHT22;3471;49.678;8.388;2023-06-22T09:59:07;32.20;99.90
6865;DHT22;3471;49.678;8.388;2023-06-22T10:01:33;32.30;99.90
6865;DHT22;3471;49.678;8.388;2023-06-22T10:03:58;32.20;99.90
6865;DHT22;3471;49.678;8.388;2023-06-22T10:06:24;32.30;99.90
6865;DHT22;3471;49.678;8.388;2023-06-22T10:08:51;32.50;99.90
6865;DHT22;3471;49.678;8.388;2023-06-22T10:11:17;32.60;99.90
6865;DHT22;3471;49.678;8.388;2023-06-22T10:13:42;32.70;99.90
6865;DHT22;3471;49.678;8.388;2023-06-22T10:16:08;32.80;99.90
6865;DHT22;3471;49.678;8.388;2023-06-22T10:18:34;33.10;99.90
6865;DHT22;3471;49.678;8.388;2023-06-22T10:21:00;33.30;99.90
6865;DHT22;3471;49.678;8.388;2023-06-22T10:23:25;33.40;99.90
6865;DHT22;3471;49.678;8.388;2023-06-22T10:25:51;33.60;99.90
6865;DHT22;3471;49.678;8.388;2023-06-22T10:28:16;33.80;99.90
6865;DHT22;3471;49.678;8.388;2023-06-22T10:30:42;33.80;99.90
6865;DHT22;3471;49.678;8.388;2023-06-22T10:33:09;33.90;99.90
6865;DHT22;3471;49.678;8.388;2023-06-22T10:35:35;34.10;99.90
6865;DHT22;3471;49.678;8.388;2023-06-22T10:38:03;34.20;99.90
6865;DHT22;3471;49.678;8.388;2023-06-22T10:40:29;34.40;99.90
6865;DHT22;3471;49.678;8.388;2023-06-22T10:42:55;34.40;99.90
6865;DHT22;3471;49.678;8.388;2023-06-22T10:45:20;34.30;99.90
6865;DHT22;3471;49.678;8.388;2023-06-22T10:47:46;34.20;99.90
6865;DHT22;3471;49.678;8.388;2023-06-22T10:50:11;34.30;99.90
6865;DHT22;3471;49.678;8.388;2023-06-22T10:52:37;34.30;99.90
6865;DHT22;3471;49.678;8.388;2023-06-22T10:55:03;34.20;99.90
6865;DHT22;3471;49.678;8.388;2023-06-22T10:57:29;34.30;99.90
6865;DHT22;3471;49.678;8.388;2023-06-22T10:59:55;34.40;99.90
6865;DHT22;3471;49.678;8.388;2023-06-22T11:02:20;34.40;99.90
6865;DHT22;3471;49.678;8.388;2023-06-22T11:04:46;34.60;99.90
6865;DHT22;3471;49.678;8.388;2023-06-22T11:07:13;34.90;99.90
6865;DHT22;3471;49.678;8.388;2023-06-22T11:09:38;35.00;99.90
6865;DHT22;3471;49.678;8.388;2023-06-22T11:12:05;35.10;99.90
6865;DHT22;3471;49.678;8.388;2023-06-22T11:14:31;35.20;99.90
6865;DHT22;3471;49.678;8.388;2023-06-22T11:16:58;35.30;99.90
6865;DHT22;3471;49.678;8.388;2023-06-22T11:19:24;35.40;99.90
6865;DHT22;3471;49.678;8.388;2023-06-22T11:21:50;35.40;98.70
6865;DHT22;3471;49.678;8.388;2023-06-22T11:24:16;35.50;98.40
6865;DHT22;3471;49.678;8.388;2023-06-22T11:26:42;35.60;99.90
6865;DHT22;3471;49.678;8.388;2023-06-22T11:29:07;35.60;98.90
6865;DHT22;3471;49.678;8.388;2023-06-22T11:31:34;35.70;99.90
6865;DHT22;3471;49.678;8.388;2023-06-22T11:34:00;35.70;98.50
6865;DHT22;3471;49.678;8.388;2023-06-22T11:36:26;35.50;99.10
6865;DHT22;3471;49.678;8.388;2023-06-22T11:38:51;35.50;98.60
6865;DHT22;3471;49.678;8.388;2023-06-22T11:41:17;35.60;98.30
6865;DHT22;3471;49.678;8.388;2023-06-22T11:43:42;35.60;98.00
6865;DHT22;3471;49.678;8.388;2023-06-22T11:46:08;35.70;98.50
6865;DHT22;3471;49.678;8.388;2023-06-22T11:48:34;35.70;97.80
6865;DHT22;3471;49.678;8.388;2023-06-22T11:50:59;35.70;98.60
6865;DHT22;3471;49.678;8.388;2023-06-22T11:53:26;35.90;98.80
6865;DHT22;3471;49.678;8.388;2023-06-22T11:55:52;36.00;98.70
6865;DHT22;3471;49.678;8.388;2023-06-22T11:58:20;36.00;97.40
6865;DHT22;3471;49.678;8.388;2023-06-22T12:00:46;36.00;98.10
6865;DHT22;3471;49.678;8.388;2023-06-22T12:03:11;36.10;98.00
6865;DHT22;3471;49.678;8.388;2023-06-22T12:05:38;36.10;97.20
6865;DHT22;3471;49.678;8.388;2023-06-22T12:08:04;36.20;96.80
6865;DHT22;3471;49.678;8.388;2023-06-22T12:10:29;36.30;96.00
6865;DHT22;3471;49.678;8.388;2023-06-22T12:12:55;36.20;96.60
6865;DHT22;3471;49.678;8.388;2023-06-22T12:15:23;36.10;96.60
6865;DHT22;3471;49.678;8.388;2023-06-22T12:17:48;36.10;97.40
6865;DHT22;3471;49.678;8.388;2023-06-22T12:20:14;36.10;96.20
6865;DHT22;3471;49.678;8.388;2023-06-22T12:22:40;36.10;96.90
6865;DHT22;3471;49.678;8.388;2023-06-22T12:25:07;36.00;96.80
6865;DHT22;3471;49.678;8.388;2023-06-22T12:27:32;36.00;96.60
6865;DHT22;3471;49.678;8.388;2023-06-22T12:29:58;35.90;95.40
6865;DHT22;3471;49.678;8.388;2023-06-22T12:32:24;35.80;96.10
6865;DHT22;3471;49.678;8.388;2023-06-22T12:34:50;35.60;95.70
6865;DHT22;3471;49.678;8.388;2023-06-22T12:37:16;35.40;95.90
6865;DHT22;3471;49.678;8.388;2023-06-22T12:39:41;35.20;96.40
6865;DHT22;3471;49.678;8.388;2023-06-22T12:42:07;35.10;97.00
6865;DHT22;3471;49.678;8.388;2023-06-22T12:44:35;35.30;95.90
6865;DHT22;3471;49.678;8.388;2023-06-22T12:47:00;35.40;96.70
6865;DHT22;3471;49.678;8.388;2023-06-22T12:49:26;35.60;96.20
6865;DHT22;3471;49.678;8.388;2023-06-22T12:51:51;35.80;96.20
6865;DHT22;3471;49.678;8.388;2023-06-22T12:54:17;36.00;96.90
6865;DHT22;3471;49.678;8.388;2023-06-22T12:56:43;36.30;95.60
6865;DHT22;3471;49.678;8.388;2023-06-22T12:59:10;36.40;95.50
6865;DHT22;3471;49.678;8.388;2023-06-22T13:01:36;36.40;95.00
6865;DHT22;3471;49.678;8.388;2023-06-22T13:04:02;36.30;95.10
6865;DHT22;3471;49.678;8.388;2023-06-22T13:06:29;36.20;95.80
6865;DHT22;3471;49.678;8.388;2023-06-22T13:08:54;36.20;96.70
6865;DHT22;3471;49.678;8.388;2023-06-22T13:11:20;36.30;95.60
6865;DHT22;3471;49.678;8.388;2023-06-22T13:13:46;36.30;96.30
6865;DHT22;3471;49.678;8.388;2023-06-22T13:16:12;36.40;95.20
6865;DHT22;3471;49.678;8.388;2023-06-22T13:18:37;36.40;95.50
6865;DHT22;3471;49.678;8.388;2023-06-22T13:21:03;36.40;94.60
6865;DHT22;3471;49.678;8.388;2023-06-22T13:23:29;36.30;95.10
6865;DHT22;3471;49.678;8.388;2023-06-22T13:25:54;36.30;95.50
6865;DHT22;3471;49.678;8.388;2023-06-22T13:28:20;36.50;95.90
6865;DHT22;3471;49.678;8.388;2023-06-22T13:30:46;36.60;94.80
6865;DHT22;3471;49.678;8.388;2023-06-22T13:33:13;36.80;94.20
6865;DHT22;3471;49.678;8.388;2023-06-22T13:35:38;37.10;95.00
6865;DHT22;3471;49.678;8.388;2023-06-22T13:38:04;37.30;95.00
6865;DHT22;3471;49.678;8.388;2023-06-22T13:40:30;37.50;94.90
6865;DHT22;3471;49.678;8.388;2023-06-22T13:42:56;37.60;94.30
6865;DHT22;3471;49.678;8.388;2023-06-22T13:45:22;37.60;93.90
6865;DHT22;3471;49.678;8.388;2023-06-22T13:47:47;37.80;94.00
6865;DHT22;3471;49.678;8.388;2023-06-22T13:50:13;37.90;94.00
6865;DHT22;3471;49.678;8.388;2023-06-22T13:52:39;37.90;93.70
6865;DHT22;3471;49.678;8.388;2023-06-22T13:55:05;38.10;92.20
6865;DHT22;3471;49.678;8.388;2023-06-22T13:57:32;38.20;93.00
6865;DHT22;3471;49.678;8.388;2023-06-22T13:59:59;38.20;93.20
6865;DHT22;3471;49.678;8.388;2023-06-22T14:02:26;38.30;93.10
6865;DHT22;3471;49.678;8.388;2023-06-22T14:04:51;38.50;91.30
6865;DHT22;3471;49.678;8.388;2023-06-22T14:07:17;38.50;91.00
6865;DHT22;3471;49.678;8.388;2023-06-22T14:09:44;38.70;92.10
6865;DHT22;3471;49.678;8.388;2023-06-22T14:12:10;38.80;91.80
6865;DHT22;3471;49.678;8.388;2023-06-22T14:14:36;38.90;90.90
6865;DHT22;3471;49.678;8.388;2023-06-22T14:17:02;38.90;90.40
6865;DHT22;3471;49.678;8.388;2023-06-22T14:19:28;39.10;89.60
6865;DHT22;3471;49.678;8.388;2023-06-22T14:21:54;39.20;89.90
6865;DHT22;3471;49.678;8.388;2023-06-22T14:24:19;39.20;89.00
6865;DHT22;3471;49.678;8.388;2023-06-22T14:26:45;39.20;89.00
6865;DHT22;3471;49.678;8.388;2023-06-22T14:29:11;39.20;88.90
6865;DHT22;3471;49.678;8.388;2023-06-22T14:31:36;39.00;87.90
6865;DHT22;3471;49.678;8.388;2023-06-22T14:34:02;38.60;87.90
6865;DHT22;3471;49.678;8.388;2023-06-22T14:36:31;38.20;90.50
6865;DHT22;3471;49.678;8.388;2023-06-22T14:38:57;37.80;90.90
6865;DHT22;3471;49.678;8.388;2023-06-22T14:41:22;37.70;90.80
6865;DHT22;3471;49.678;8.388;2023-06-22T14:43:49;37.70;91.10
6865;DHT22;3471;49.678;8.388;2023-06-22T14:46:17;37.60;90.70
6865;DHT22;3471;49.678;8.388;2023-06-22T14:48:42;37.50;91.50
6865;DHT22;3471;49.678;8.388;2023-06-22T14:51:09;37.70;91.40
6865;DHT22;3471;49.678;8.388;2023-06-22T14:53:35;38.00;91.80
6865;DHT22;3471;49.678;8.388;2023-06-22T14:56:01;38.10;91.40
6865;DHT22;3471;49.678;8.388;2023-06-22T14:58:28;38.20;91.30
6865;DHT22;3471;49.678;8.388;2023-06-22T15:00:56;38.10;91.50
6865;DHT22;3471;49.678;8.388;2023-06-22T15:03:22;38.20;91.60
6865;DHT22;3471;49.678;8.388;2023-06-22T15:05:52;38.10;90.80
6865;DHT22;3471;49.678;8.388;2023-06-22T15:08:19;38.00;90.90
6865;DHT22;3471;49.678;8.388;2023-06-22T15:10:44;37.90;91.10
6865;DHT22;3471;49.678;8.388;2023-06-22T15:13:10;37.90;91.00
6865;DHT22;3471;49.678;8.388;2023-06-22T15:15:36;37.80;91.50
6865;DHT22;3471;49.678;8.388;2023-06-22T15:18:02;37.80;90.80
6865;DHT22;3471;49.678;8.388;2023-06-22T15:20:27;37.60;90.70
6865;DHT22;3471;49.678;8.388;2023-06-22T15:22:53;37.30;91.40
6865;DHT22;3471;49.678;8.388;2023-06-22T15:25:19;37.30;91.30
6865;DHT22;3471;49.678;8.388;2023-06-22T15:27:44;37.10;91.60
6865;DHT22;3471;49.678;8.388;2023-06-22T15:30:10;36.70;91.90
6865;DHT22;3471;49.678;8.388;2023-06-22T15:32:36;36.30;92.60
6865;DHT22;3471;49.678;8.388;2023-06-22T15:35:01;36.00;93.00
6865;DHT22;3471;49.678;8.388;2023-06-22T15:37:28;35.80;93.30
6865;DHT22;3471;49.678;8.388;2023-06-22T15:39:54;35.60;93.00
6865;DHT22;3471;49.678;8.388;2023-06-22T15:42:21;35.20;93.40
6865;DHT22;3471;49.678;8.388;2023-06-22T15:44:47;34.80;93.60
6865;DHT22;3471;49.678;8.388;2023-06-22T15:47:13;34.30;94.30
6865;DHT22;3471;49.678;8.388;2023-06-22T15:49:38;33.90;94.50
6865;DHT22;3471;49.678;8.388;2023-06-22T15:52:04;33.60;94.90
6865;DHT22;3471;49.678;8.388;2023-06-22T15:54:29;33.20;95.60
6865;DHT22;3471;49.678;8.388;2023-06-22T15:56:55;32.80;96.30
6865;DHT22;3471;49.678;8.388;2023-06-22T15:59:21;32.60;96.50
6865;DHT22;3471;49.678;8.388;2023-06-22T16:01:46;32.40;97.10
6865;DHT22;3471;49.678;8.388;2023-06-22T16:04:12;32.20;97.10